Strona główna
METAR-TAF:

METAR-TAF

Lotnisko :

Port lotniczy Psków

Psków, Rosja

Szerokość geograficzna: 57-47-06N, Długość geograficzna: 028-23-54E, wysokość: 47 m

Aktualna obserwacja pogody

Raport powstał 42 minut temu, godzina 01:00 UTC
Wiatr 2 kt od wschodnio-południowy wschód
Temperatura -2°C
Wilgotność 74%
Ciśnienie 1032 hPa
Widzialność 10 km lub więcej

METAR: ULOO 060100Z AUTO 11001MPS 9999 // M02/M06 Q1032 RMK QFE769

czas: 04:42 (01:42 UTC)

Prognoza

Raport powstał 2 godziny i 43 minut temu, godzina 22:59 UTC
Prognoza ważna od 06 godzina 00 UTC do 06 godzina 09 UTC
Wiatr 6 kt od zachodnio-południowy zachód
Widzialność: 6000 m
Rozproszone chmury na wysokości 2000 ft
Przejściowo
od 06 godzina 00 UTC do 06 godzina 09 UTC
Wiatr 6 kt od południowo-południowy zachód
Widzialność: 3100 m
Przerywane chmury na wysokości 1100 ft
Przerywane chmury na wysokości 1500 ft, Cumulonimbus.
słaby przelotny opad deszczu, śnieg, zamglenie

TAF: ULOO 052259Z 0600/0609 24003MPS 6000 SCT020 TEMPO 0600/0609 21003MPS 3100 -SHRASN BR BKN011 BKN015CB

Obserwacja i prognoza pogody dla ponad 4000 lotnisk (raport METAR i TAF).

Dostępne stacje oznaczono żółtymi i czerwonymi punktami na mapie.

Najedź kursorem aby zobaczyć nazwę stacji.

Kliknij aby zobaczyć obserwacje i prognozy pogody.

Aby zmienić mapę: kliknij na zielony przycisk z czarnym krzyżykiem, aby powiększyć; na zielony przycisk z myślnikiem, aby pomniejszyć; na zielone strzałki, aby przejść do map sąsiednich.


METAR-TAF: